Time,TemperatureF,DewpointF,PressureIn,WindDirection,WindDirectionDegrees,WindSpeedMPH,WindSpeedGustMPH,Humidity,HourlyPrecipIn,Conditions,Clouds,dailyrainin,SoftwareType,DateUTC
2013-01-19 00:05:00,35.0,28.8,30.01,West,266,7.0,7.0,78,0.00,,,0.00,Wunderground v.1.15,2013-01-19 06:05:00,
2013-01-19 00:10:00,34.9,28.7,30.00,West,266,7.0,7.0,78,0.00,,,0.00,Wunderground v.1.15,2013-01-19 06:10:00,
2013-01-19 00:15:00,35.5,29.0,30.00,West,263,7.0,7.0,77,0.00,,,0.00,Wunderground v.1.15,2013-01-19 06:15:00,
2013-01-19 00:20:00,36.0,28.8,30.00,West,263,7.0,8.0,75,0.00,,,0.00,Wunderground v.1.15,2013-01-19 06:20:00,
2013-01-19 00:25:00,35.9,28.7,30.00,West,261,7.0,8.0,75,0.00,,,0.00,Wunderground v.1.15,2013-01-19 06:25:00,
2013-01-19 00:35:00,36.2,29.0,30.00,WSW,254,8.0,9.0,75,0.00,,,0.00,Wunderground v.1.15,2013-01-19 06:35:00,
2013-01-19 00:40:00,36.3,28.8,30.00,WSW,251,8.0,8.0,74,0.00,,,0.00,Wunderground v.1.15,2013-01-19 06:40:00,
2013-01-19 00:45:00,36.1,28.9,30.00,WSW,246,8.0,9.0,75,0.00,,,0.00,Wunderground v.1.15,2013-01-19 06:45:00,
2013-01-19 00:50:00,36.2,29.0,30.00,WSW,246,8.0,8.0,75,0.00,,,0.00,Wunderground v.1.15,2013-01-19 06:50:00,
2013-01-19 00:55:00,35.9,28.7,30.00,WSW,247,8.0,8.0,75,0.00,,,0.00,Wunderground v.1.15,2013-01-19 06:55:00,
2013-01-19 01:00:00,35.6,28.8,30.00,WSW,253,8.0,8.0,76,0.00,,,0.00,Wunderground v.1.15,2013-01-19 07:00:00,
2013-01-19 01:10:00,35.4,28.9,29.99,WSW,258,8.0,8.0,77,0.00,,,0.00,Wunderground v.1.15,2013-01-19 07:10:00,
2013-01-19 01:15:00,35.3,28.8,29.99,WSW,253,7.0,8.0,77,0.00,,,0.00,Wunderground v.1.15,2013-01-19 07:15:00,
2013-01-19 01:20:00,34.8,28.3,29.99,WSW,240,7.0,7.0,77,0.00,,,0.00,Wunderground v.1.15,2013-01-19 07:20:00,
2013-01-19 01:25:00,34.1,28.3,29.99,WSW,240,6.0,7.0,79,0.00,,,0.00,Wunderground v.1.15,2013-01-19 07:25:00,
2013-01-19 01:30:00,34.1,28.6,29.99,WSW,240,6.0,8.0,80,0.00,,,0.00,Wunderground v.1.15,2013-01-19 07:30:00,
2013-01-19 01:40:00,34.6,28.4,29.99,WSW,247,9.0,10.0,78,0.00,,,0.00,Wunderground v.1.15,2013-01-19 07:40:00,
2013-01-19 01:45:00,34.8,28.6,29.99,WSW,245,10.0,10.0,78,0.00,,,0.00,Wunderground v.1.15,2013-01-19 07:45:00,
2013-01-19 01:50:00,35.0,28.5,29.99,WSW,238,10.0,10.0,77,0.00,,,0.00,Wunderground v.1.15,2013-01-19 07:50:00,
2013-01-19 01:55:00,34.9,28.4,29.99,WSW,242,9.0,10.0,77,0.00,,,0.00,Wunderground v.1.15,2013-01-19 07:55:00,
2013-01-19 02:00:00,35.0,28.5,29.99,WSW,242,9.0,9.0,77,0.00,,,0.00,Wunderground v.1.15,2013-01-19 08:00:00,
2013-01-19 02:05:00,34.9,28.7,29.99,WSW,249,8.0,9.0,78,0.00,,,0.00,Wunderground v.1.15,2013-01-19 08:05:00,
2013-01-19 02:15:00,35.0,28.5,29.99,WSW,250,9.0,9.0,77,0.00,,,0.00,Wunderground v.1.15,2013-01-19 08:15:00,
2013-01-19 02:20:00,35.0,28.8,29.99,WSW,257,8.0,8.0,78,0.00,,,0.00,Wunderground v.1.15,2013-01-19 08:20:00,
2013-01-19 02:25:00,35.2,28.7,29.99,West,260,8.0,10.0,77,0.00,,,0.00,Wunderground v.1.15,2013-01-19 08:25:00,
2013-01-19 02:30:00,35.4,28.9,29.99,West,261,9.0,9.0,77,0.00,,,0.00,Wunderground v.1.15,2013-01-19 08:30:00,
2013-01-19 02:35:00,36.1,28.9,29.99,West,265,10.0,10.0,75,0.00,,,0.00,Wunderground v.1.15,2013-01-19 08:35:00,
2013-01-19 02:45:00,36.4,28.9,29.99,West,273,10.0,12.0,74,0.00,,,0.00,Wunderground v.1.15,2013-01-19 08:45:00,
2013-01-19 02:50:00,36.2,28.7,30.00,West,273,10.0,10.0,74,0.00,,,0.00,Wunderground v.1.15,2013-01-19 08:50:00,
2013-01-19 02:55:00,35.8,28.6,30.00,West,274,9.0,10.0,75,0.00,,,0.00,Wunderground v.1.15,2013-01-19 08:55:00,
2013-01-19 03:00:00,35.9,28.7,29.99,West,269,8.0,9.0,75,0.00,,,0.00,Wunderground v.1.15,2013-01-19 09:00:00,
2013-01-19 03:05:00,36.2,28.7,29.99,West,266,9.0,10.0,74,0.00,,,0.00,Wunderground v.1.15,2013-01-19 09:05:00,
2013-01-19 03:10:00,36.2,28.7,29.99,West,267,10.0,10.0,74,0.00,,,0.00,Wunderground v.1.15,2013-01-19 09:10:00,
2013-01-19 03:20:00,35.8,28.6,30.00,West,271,10.0,10.0,75,0.00,,,0.00,Wunderground v.1.15,2013-01-19 09:20:00,
2013-01-19 03:25:00,35.7,28.6,29.99,West,276,9.0,10.0,75,0.00,,,0.00,Wunderground v.1.15,2013-01-19 09:25:00,
2013-01-19 03:30:00,35.7,28.6,29.99,West,277,9.0,9.0,75,0.00,,,0.00,Wunderground v.1.15,2013-01-19 09:30:00,
2013-01-19 03:35:00,35.5,28.4,29.99,WNW,283,9.0,9.0,75,0.00,,,0.00,Wunderground v.1.15,2013-01-19 09:35:00,
2013-01-19 03:40:00,35.6,28.1,29.99,West,277,9.0,10.0,74,0.00,,,0.00,Wunderground v.1.15,2013-01-19 09:40:00,
2013-01-19 03:50:00,35.9,27.7,29.99,WNW,301,9.0,13.0,72,0.00,,,0.00,Wunderground v.1.15,2013-01-19 09:50:00,
2013-01-19 03:55:00,36.1,27.6,29.99,WNW,283,10.0,13.0,71,0.00,,,0.00,Wunderground v.1.15,2013-01-19 09:55:00,
2013-01-19 04:00:00,35.9,27.7,29.99,West,278,10.0,10.0,72,0.00,,,0.00,Wunderground v.1.15,2013-01-19 10:00:00,
2013-01-19 04:05:00,35.5,27.7,29.99,West,281,9.0,10.0,73,0.00,,,0.00,Wunderground v.1.15,2013-01-19 10:05:00,
2013-01-19 04:10:00,35.1,27.3,29.99,West,281,8.0,9.0,73,0.00,,,0.00,Wunderground v.1.15,2013-01-19 10:10:00,
2013-01-19 04:15:00,35.0,27.5,29.99,West,273,8.0,9.0,74,0.00,,,0.00,Wunderground v.1.15,2013-01-19 10:15:00,
2013-01-19 04:25:00,34.8,27.4,30.00,West,272,11.0,14.0,74,0.00,,,0.00,Wunderground v.1.15,2013-01-19 10:25:00,
2013-01-19 04:30:00,34.5,27.4,30.00,West,274,12.0,12.0,75,0.00,,,0.00,Wunderground v.1.15,2013-01-19 10:30:00,
2013-01-19 04:35:00,34.0,27.2,30.00,West,275,10.0,12.0,76,0.00,,,0.00,Wunderground v.1.15,2013-01-19 10:35:00,
2013-01-19 04:40:00,34.1,27.3,30.00,West,279,10.0,11.0,76,0.00,,,0.00,Wunderground v.1.15,2013-01-19 10:40:00,
2013-01-19 04:45:00,34.7,27.3,30.00,West,271,11.0,11.0,74,0.00,,,0.00,Wunderground v.1.15,2013-01-19 10:45:00,
2013-01-19 04:54:00,35.4,26.9,30.00,WNW,290,12.0,12.0,71,0.00,,,0.00,Wunderground v.1.15,2013-01-19 10:54:00,
2013-01-19 04:59:00,35.5,27.0,30.00,WNW,292,12.0,12.0,71,0.00,,,0.00,Wunderground v.1.15,2013-01-19 10:59:00,
2013-01-19 05:04:00,35.4,26.9,30.00,WNW,293,12.0,12.0,71,0.00,,,0.00,Wunderground v.1.15,2013-01-19 11:04:00,
2013-01-19 05:10:00,35.7,26.9,30.00,West,281,11.0,11.0,70,0.00,,,0.00,Wunderground v.1.15,2013-01-19 11:10:00,
2013-01-19 06:49:00,37.5,27.5,30.04,WNW,284,14.0,15.0,67,0.00,,,0.00,Wunderground v.1.15,2013-01-19 12:49:00,
2013-01-19 06:54:00,37.6,27.6,30.04,WNW,284,15.0,15.0,67,0.00,,,0.00,Wunderground v.1.15,2013-01-19 12:54:00,
2013-01-19 06:59:00,37.4,27.4,30.04,WNW,292,15.0,15.0,67,0.00,,,0.00,Wunderground v.1.15,2013-01-19 12:59:00,
2013-01-19 07:04:00,37.1,27.5,30.04,West,277,16.0,16.0,68,0.00,,,0.00,Wunderground v.1.15,2013-01-19 13:04:00,
2013-01-19 07:09:00,37.1,27.5,30.05,WNW,302,14.0,14.0,68,0.00,,,0.00,Wunderground v.1.15,2013-01-19 13:09:00,
2013-01-19 07:14:00,36.9,27.3,30.05,NW,304,13.0,15.0,68,0.00,,,0.00,Wunderground v.1.15,2013-01-19 13:14:00,
2013-01-19 07:20:00,36.9,27.7,30.05,WNW,294,14.0,14.0,69,0.00,,,0.00,Wunderground v.1.15,2013-01-19 13:20:00,
2013-01-19 07:25:00,36.8,27.6,30.05,West,278,14.0,14.0,69,0.00,,,0.00,Wunderground v.1.15,2013-01-19 13:25:00,
2013-01-19 07:30:00,36.9,27.3,30.05,WNW,291,13.0,13.0,68,0.00,,,0.00,Wunderground v.1.15,2013-01-19 13:30:00,
2013-01-19 07:40:00,36.7,27.5,30.06,WNW,292,12.0,12.0,69,0.00,,,0.00,Wunderground v.1.15,2013-01-19 13:40:00,
2013-01-19 07:45:00,36.5,27.3,30.07,West,281,11.0,12.0,69,0.00,,,0.00,Wunderground v.1.15,2013-01-19 13:45:00,
2013-01-19 07:50:00,36.4,27.2,30.07,WNW,289,11.0,11.0,69,0.00,,,0.00,Wunderground v.1.15,2013-01-19 13:50:00,
2013-01-19 07:59:00,36.0,27.2,30.08,WNW,302,9.0,10.0,70,0.00,,,0.00,Wunderground v.1.15,2013-01-19 13:59:00,
2013-01-19 08:04:00,36.0,27.2,30.08,WNW,294,9.0,12.0,70,0.00,,,0.00,Wunderground v.1.15,2013-01-19 14:04:00,
2013-01-19 08:09:00,36.2,27.0,30.08,WNW,297,10.0,11.0,69,0.00,,,0.00,Wunderground v.1.15,2013-01-19 14:09:00,
2013-01-19 08:14:00,36.1,27.3,30.08,NW,309,9.0,11.0,70,0.00,,,0.00,Wunderground v.1.15,2013-01-19 14:14:00,
2013-01-19 08:19:00,36.4,27.2,30.08,WNW,303,10.0,11.0,69,0.00,,,0.00,Wunderground v.1.15,2013-01-19 14:19:00,
2013-01-19 08:29:00,36.6,27.0,30.09,WNW,292,11.0,14.0,68,0.00,,,0.00,Wunderground v.1.15,2013-01-19 14:29:00,
2013-01-19 08:34:00,36.7,27.1,30.10,WNW,293,11.0,14.0,68,0.00,,,0.00,Wunderground v.1.15,2013-01-19 14:34:00,
2013-01-19 08:39:00,36.9,27.3,30.10,WNW,297,11.0,11.0,68,0.00,,,0.00,Wunderground v.1.15,2013-01-19 14:39:00,
2013-01-19 08:44:00,37.1,27.2,30.10,WNW,288,10.0,11.0,67,0.00,,,0.00,Wunderground v.1.15,2013-01-19 14:44:00,
2013-01-19 08:50:00,37.4,27.4,30.10,NW,304,9.0,11.0,67,0.00,,,0.00,Wunderground v.1.15,2013-01-19 14:50:00,
2013-01-19 08:55:00,37.7,27.4,30.11,WNW,302,10.0,11.0,66,0.00,,,0.00,Wunderground v.1.15,2013-01-19 14:55:00,
2013-01-19 09:04:00,38.3,28.3,30.12,WNW,292,9.0,10.0,67,0.00,,,0.00,Wunderground v.1.15,2013-01-19 15:04:00,
2013-01-19 09:09:00,38.8,28.4,30.12,WNW,288,10.0,11.0,66,0.00,,,0.00,Wunderground v.1.15,2013-01-19 15:09:00,
2013-01-19 09:14:00,39.5,28.3,30.12,WNW,292,11.0,11.0,64,0.00,,,0.00,Wunderground v.1.15,2013-01-19 15:14:00,
2013-01-19 09:19:00,39.9,28.7,30.12,NW,307,10.0,10.0,64,0.00,,,0.00,Wunderground v.1.15,2013-01-19 15:19:00,
2013-01-19 09:24:00,40.2,28.6,30.13,WNW,290,10.0,10.0,63,0.00,,,0.00,Wunderground v.1.15,2013-01-19 15:24:00,
2013-01-19 09:30:00,40.4,28.8,30.13,WNW,294,11.0,11.0,63,0.00,,,0.00,Wunderground v.1.15,2013-01-19 15:30:00,
2013-01-19 09:39:00,41.1,29.1,30.13,WNW,286,11.0,11.0,62,0.00,,,0.00,Wunderground v.1.15,2013-01-19 15:39:00,
2013-01-19 09:44:00,41.4,28.9,30.14,WNW,290,12.0,15.0,61,0.00,,,0.00,Wunderground v.1.15,2013-01-19 15:44:00,
2013-01-19 09:49:00,41.6,29.1,30.14,WNW,292,13.0,13.0,61,0.00,,,0.00,Wunderground v.1.15,2013-01-19 15:49:00,
2013-01-19 09:54:00,41.9,29.4,30.14,WNW,292,13.0,16.0,61,0.00,,,0.00,Wunderground v.1.15,2013-01-19 15:54:00,
2013-01-19 09:59:00,42.2,29.3,30.14,WNW,291,12.0,13.0,60,0.00,,,0.00,Wunderground v.1.15,2013-01-19 15:59:00,
2013-01-19 10:05:00,42.7,29.4,30.14,WNW,290,12.0,13.0,59,0.00,,,0.00,Wunderground v.1.15,2013-01-19 16:05:00,
2013-01-19 10:14:00,43.2,29.4,30.15,WNW,285,11.0,12.0,58,0.00,,,0.00,Wunderground v.1.15,2013-01-19 16:14:00,
2013-01-19 10:19:00,43.7,29.9,30.15,WNW,296,11.0,11.0,58,0.00,,,0.00,Wunderground v.1.15,2013-01-19 16:19:00,
2013-01-19 10:24:00,44.1,29.8,30.15,WNW,288,11.0,11.0,57,0.00,,,0.00,Wunderground v.1.15,2013-01-19 16:24:00,
2013-01-19 10:29:00,44.1,29.8,30.15,NW,304,12.0,12.0,57,0.00,,,0.00,Wunderground v.1.15,2013-01-19 16:29:00,
2013-01-19 10:35:00,44.2,29.9,30.15,WNW,295,13.0,13.0,57,0.00,,,0.00,Wunderground v.1.15,2013-01-19 16:35:00,
2013-01-19 10:40:00,44.4,30.1,30.15,West,277,13.0,14.0,57,0.00,,,0.00,Wunderground v.1.15,2013-01-19 16:40:00,
2013-01-19 10:45:00,44.5,29.8,30.15,WNW,291,14.0,14.0,56,0.00,,,0.00,Wunderground v.1.15,2013-01-19 16:45:00,
2013-01-19 10:50:00,44.6,30.3,30.15,WNW,289,14.0,14.0,57,0.00,,,0.00,Wunderground v.1.15,2013-01-19 16:50:00,
2013-01-19 10:55:00,44.9,30.6,30.15,WNW,299,14.0,17.0,57,0.00,,,0.00,Wunderground v.1.15,2013-01-19 16:55:00,
2013-01-19 11:00:00,45.1,30.3,30.15,WNW,297,13.0,14.0,56,0.00,,,0.00,Wunderground v.1.15,2013-01-19 17:00:00,
2013-01-19 11:10:00,45.4,31.0,30.16,WNW,294,13.0,14.0,57,0.00,,,0.00,Wunderground v.1.15,2013-01-19 17:10:00,
2013-01-19 11:15:00,45.6,30.8,30.15,West,273,13.0,14.0,56,0.00,,,0.00,Wunderground v.1.15,2013-01-19 17:15:00,
2013-01-19 11:25:00,46.0,31.2,30.15,WNW,292,13.0,15.0,56,0.00,,,0.00,Wunderground v.1.15,2013-01-19 17:25:00,
2013-01-19 11:30:00,46.2,31.8,30.15,WNW,287,13.0,18.0,57,0.00,,,0.00,Wunderground v.1.15,2013-01-19 17:30:00,
2013-01-19 11:35:00,46.5,32.1,30.15,WNW,286,12.0,18.0,57,0.00,,,0.00,Wunderground v.1.15,2013-01-19 17:35:00,
2013-01-19 11:45:00,47.1,32.6,30.15,West,281,11.0,14.0,57,0.00,,,0.00,Wunderground v.1.15,2013-01-19 17:45:00,
2013-01-19 11:55:00,47.5,33.0,30.14,WNW,283,11.0,12.0,57,0.00,,,0.00,Wunderground v.1.15,2013-01-19 17:55:00,
2013-01-19 12:00:00,47.7,32.3,30.14,WNW,296,11.0,11.0,55,0.00,,,0.00,Wunderground v.1.15,2013-01-19 18:00:00,
2013-01-19 12:05:00,47.9,33.4,30.14,West,280,12.0,12.0,57,0.00,,,0.00,Wunderground v.1.15,2013-01-19 18:05:00,
2013-01-19 12:10:00,48.1,33.1,30.14,WNW,290,13.0,13.0,56,0.00,,,0.00,Wunderground v.1.15,2013-01-19 18:10:00,
2013-01-19 12:15:00,48.4,33.4,30.14,NW,313,13.0,13.0,56,0.00,,,0.00,Wunderground v.1.15,2013-01-19 18:15:00,
2013-01-19 12:20:00,48.7,33.7,30.14,WNW,290,12.0,12.0,56,0.00,,,0.00,Wunderground v.1.15,2013-01-19 18:20:00,
2013-01-19 12:30:00,49.6,34.1,30.14,WNW,295,9.0,9.0,55,0.00,,,0.00,Wunderground v.1.15,2013-01-19 18:30:00,
2013-01-19 12:35:00,50.0,34.0,30.14,NW,311,9.0,9.0,54,0.00,,,0.00,Wunderground v.1.15,2013-01-19 18:35:00,
2013-01-19 12:40:00,50.5,34.0,30.14,WNW,294,9.0,10.0,53,0.00,,,0.00,Wunderground v.1.15,2013-01-19 18:40:00,
2013-01-19 12:45:00,50.8,33.8,30.14,WNW,290,9.0,10.0,52,0.00,,,0.00,Wunderground v.1.15,2013-01-19 18:45:00,
2013-01-19 12:55:00,50.6,35.0,30.14,WNW,283,8.0,11.0,55,0.00,,,0.00,Wunderground v.1.15,2013-01-19 18:55:00,
2013-01-19 13:04:00,50.3,32.8,30.14,NW,312,12.0,12.0,51,0.00,,,0.00,Wunderground v.1.15,2013-01-19 19:04:00,
2013-01-19 13:10:00,50.4,33.9,30.14,NW,314,13.0,13.0,53,0.00,,,0.00,Wunderground v.1.15,2013-01-19 19:10:00,
2013-01-19 13:20:00,50.5,34.5,30.14,NW,320,11.0,11.0,54,0.00,,,0.00,Wunderground v.1.15,2013-01-19 19:20:00,
2013-01-19 13:30:00,51.0,33.0,30.14,NW,316,10.0,13.0,50,0.00,,,0.00,Wunderground v.1.15,2013-01-19 19:30:00,
2013-01-19 13:40:00,51.0,32.5,30.14,NW,313,12.0,13.0,49,0.00,,,0.00,Wunderground v.1.15,2013-01-19 19:40:00,
2013-01-19 13:45:00,50.9,33.4,30.14,NW,316,13.0,16.0,51,0.00,,,0.00,Wunderground v.1.15,2013-01-19 19:45:00,
2013-01-19 13:50:00,50.9,32.9,30.14,NW,306,13.0,13.0,50,0.00,,,0.00,Wunderground v.1.15,2013-01-19 19:50:00,
2013-01-19 13:55:00,51.0,33.0,30.14,NW,309,13.0,13.0,50,0.00,,,0.00,Wunderground v.1.15,2013-01-19 19:55:00,
2013-01-19 14:05:00,51.4,31.8,30.15,WNW,300,13.0,16.0,47,0.00,,,0.00,Wunderground v.1.15,2013-01-19 20:05:00,
2013-01-19 14:10:00,51.4,32.9,30.14,WNW,303,13.0,13.0,49,0.00,,,0.00,Wunderground v.1.15,2013-01-19 20:10:00,
2013-01-19 14:20:00,51.5,33.5,30.14,NW,315,11.0,11.0,50,0.00,,,0.00,Wunderground v.1.15,2013-01-19 20:20:00,
2013-01-19 14:29:00,51.5,34.4,30.15,NW,325,10.0,12.0,52,0.00,,,0.00,Wunderground v.1.15,2013-01-19 20:29:00,
2013-01-19 14:34:00,51.4,33.9,30.15,NW,315,11.0,12.0,51,0.00,,,0.00,Wunderground v.1.15,2013-01-19 20:34:00,
2013-01-19 14:39:00,51.4,33.4,30.15,NW,317,12.0,15.0,50,0.00,,,0.00,Wunderground v.1.15,2013-01-19 20:39:00,
2013-01-19 14:44:00,51.5,33.5,30.15,NW,315,12.0,15.0,50,0.00,,,0.00,Wunderground v.1.15,2013-01-19 20:44:00,
2013-01-19 14:49:00,51.6,33.0,30.15,NW,315,11.0,11.0,49,0.00,,,0.00,Wunderground v.1.15,2013-01-19 20:49:00,
2013-01-19 14:59:00,52.1,33.5,30.15,NW,304,9.0,9.0,49,0.00,,,0.00,Wunderground v.1.15,2013-01-19 20:59:00,
2013-01-19 15:04:00,52.3,33.2,30.15,WNW,292,9.0,9.0,48,0.00,,,0.00,Wunderground v.1.15,2013-01-19 21:04:00,
2013-01-19 15:09:00,52.2,32.6,30.16,WNW,300,10.0,10.0,47,0.00,,,0.00,Wunderground v.1.15,2013-01-19 21:09:00,
2013-01-19 15:14:00,52.0,32.4,30.16,WNW,298,9.0,10.0,47,0.00,,,0.00,Wunderground v.1.15,2013-01-19 21:14:00,
2013-01-19 15:20:00,51.7,32.6,30.16,NW,305,11.0,11.0,48,0.00,,,0.00,Wunderground v.1.15,2013-01-19 21:20:00,
2013-01-19 15:25:00,51.6,32.0,30.16,WNW,302,11.0,11.0,47,0.00,,,0.00,Wunderground v.1.15,2013-01-19 21:25:00,
2013-01-19 15:40:00,51.8,33.2,30.17,WNW,292,8.0,8.0,49,0.00,,,0.00,Wunderground v.1.15,2013-01-19 21:40:00,
2013-01-19 15:50:00,51.7,34.6,30.18,WNW,291,6.0,6.0,52,0.00,,,0.00,Wunderground v.1.15,2013-01-19 21:50:00,
2013-01-19 15:55:00,51.7,34.6,30.18,WNW,300,6.0,6.0,52,0.00,,,0.00,Wunderground v.1.15,2013-01-19 21:55:00,
2013-01-19 16:00:00,51.7,34.1,30.18,NW,304,6.0,7.0,51,0.00,,,0.00,Wunderground v.1.15,2013-01-19 22:00:00,
2013-01-19 16:05:00,51.6,34.0,30.19,WNW,299,6.0,7.0,51,0.00,,,0.00,Wunderground v.1.15,2013-01-19 22:05:00,
2013-01-19 16:10:00,51.4,32.9,30.19,WNW,296,7.0,7.0,49,0.00,,,0.00,Wunderground v.1.15,2013-01-19 22:10:00,
2013-01-19 16:20:00,50.9,33.9,30.19,WNW,294,7.0,7.0,52,0.00,,,0.00,Wunderground v.1.15,2013-01-19 22:20:00,
2013-01-19 16:25:00,50.4,33.9,30.19,WNW,300,6.0,8.0,53,0.00,,,0.00,Wunderground v.1.15,2013-01-19 22:25:00,
2013-01-19 16:30:00,49.7,33.2,30.20,NW,309,7.0,9.0,53,0.00,,,0.00,Wunderground v.1.15,2013-01-19 22:30:00,
2013-01-19 16:35:00,49.5,32.6,30.20,NW,314,8.0,10.0,52,0.00,,,0.00,Wunderground v.1.15,2013-01-19 22:35:00,
2013-01-19 16:40:00,49.2,32.3,30.20,NW,310,9.0,14.0,52,0.00,,,0.00,Wunderground v.1.15,2013-01-19 22:40:00,
2013-01-19 16:45:00,49.1,31.7,30.20,NW,304,12.0,14.0,51,0.00,,,0.00,Wunderground v.1.15,2013-01-19 22:45:00,
2013-01-19 16:54:00,48.1,31.8,30.20,NW,309,11.0,12.0,53,0.00,,,0.00,Wunderground v.1.15,2013-01-19 22:54:00,
2013-01-19 16:59:00,47.7,31.4,30.21,NW,313,11.0,12.0,53,0.00,,,0.00,Wunderground v.1.15,2013-01-19 22:59:00,
2013-01-19 17:05:00,47.3,31.5,30.21,NW,319,10.0,12.0,54,0.00,,,0.00,Wunderground v.1.15,2013-01-19 23:05:00,
2013-01-19 17:10:00,46.6,32.2,30.21,NW,314,8.0,8.0,57,0.00,,,0.00,Wunderground v.1.15,2013-01-19 23:10:00,
2013-01-19 17:15:00,45.8,31.9,30.22,NW,314,6.0,8.0,58,0.00,,,0.00,Wunderground v.1.15,2013-01-19 23:15:00,
2013-01-19 17:20:00,45.4,31.9,30.21,NW,314,6.0,6.0,59,0.00,,,0.00,Wunderground v.1.15,2013-01-19 23:20:00,
2013-01-19 17:30:00,45.0,31.9,30.22,NW,313,6.0,6.0,60,0.00,,,0.00,Wunderground v.1.15,2013-01-19 23:30:00,
2013-01-19 17:35:00,44.5,31.9,30.22,NW,318,5.0,6.0,61,0.00,,,0.00,Wunderground v.1.15,2013-01-19 23:35:00,
2013-01-19 17:40:00,43.9,31.7,30.22,NNW,332,4.0,4.0,62,0.00,,,0.00,Wunderground v.1.15,2013-01-19 23:40:00,
2013-01-19 17:45:00,43.5,31.3,30.22,NNW,333,4.0,4.0,62,0.00,,,0.00,Wunderground v.1.15,2013-01-19 23:45:00,
2013-01-19 17:50:00,43.1,31.4,30.22,NNW,333,4.0,4.0,63,0.00,,,0.00,Wunderground v.1.15,2013-01-19 23:50:00,
2013-01-19 18:00:00,42.3,31.0,30.23,NNW,333,3.0,4.0,64,0.00,,,0.00,Wunderground v.1.15,2013-01-20 00:00:00,
2013-01-19 18:05:00,42.1,30.8,30.23,NNW,333,3.0,4.0,64,0.00,,,0.00,Wunderground v.1.15,2013-01-20 00:05:00,
2013-01-19 18:10:00,41.8,30.9,30.23,NNW,333,3.0,4.0,65,0.00,,,0.00,Wunderground v.1.15,2013-01-20 00:10:00,
2013-01-19 18:15:00,41.6,30.7,30.24,NNW,333,3.0,4.0,65,0.00,,,0.00,Wunderground v.1.15,2013-01-20 00:15:00,
2013-01-19 18:20:00,41.6,30.7,30.25,NNW,333,3.0,4.0,65,0.00,,,0.00,Wunderground v.1.15,2013-01-20 00:20:00,
2013-01-19 18:25:00,41.3,30.4,30.25,NNW,333,2.0,4.0,65,0.00,,,0.00,Wunderground v.1.15,2013-01-20 00:25:00,
2013-01-19 18:30:00,41.0,30.5,30.25,NNW,333,2.0,2.0,66,0.00,,,0.00,Wunderground v.1.15,2013-01-20 00:30:00,
2013-01-19 18:40:00,41.1,30.6,30.26,NNW,333,1.0,4.0,66,0.00,,,0.00,Wunderground v.1.15,2013-01-20 00:40:00,
2013-01-19 18:45:00,40.9,30.4,30.26,NNW,333,2.0,4.0,66,0.00,,,0.00,Wunderground v.1.15,2013-01-20 00:45:00,
2013-01-19 18:50:00,40.7,30.6,30.26,NNW,333,2.0,4.0,67,0.00,,,0.00,Wunderground v.1.15,2013-01-20 00:50:00,
2013-01-19 18:55:00,40.5,30.8,30.26,NNW,333,2.0,4.0,68,0.00,,,0.00,Wunderground v.1.15,2013-01-20 00:55:00,
2013-01-19 19:00:00,40.1,30.4,30.27,NNW,333,1.0,4.0,68,0.00,,,0.00,Wunderground v.1.15,2013-01-20 01:00:00,
2013-01-19 19:10:00,40.0,30.3,30.27,NNW,333,2.0,4.0,68,0.00,,,0.00,Wunderground v.1.15,2013-01-20 01:10:00,
2013-01-19 19:15:00,39.7,30.0,30.28,NNW,333,2.0,4.0,68,0.00,,,0.00,Wunderground v.1.15,2013-01-20 01:15:00,
2013-01-19 19:20:00,39.0,29.7,30.28,NNW,333,2.0,2.0,69,0.00,,,0.00,Wunderground v.1.15,2013-01-20 01:20:00,
2013-01-19 19:25:00,38.5,29.9,30.28,NNW,333,2.0,4.0,71,0.00,,,0.00,Wunderground v.1.15,2013-01-20 01:25:00,
2013-01-19 19:30:00,38.0,29.4,30.29,NNW,333,3.0,3.0,71,0.00,,,0.00,Wunderground v.1.15,2013-01-20 01:30:00,
2013-01-19 19:40:00,37.4,29.5,30.29,NNW,333,3.0,4.0,73,0.00,,,0.00,Wunderground v.1.15,2013-01-20 01:40:00,
2013-01-19 19:50:00,37.0,29.1,30.30,NNW,333,3.0,4.0,73,0.00,,,0.00,Wunderground v.1.15,2013-01-20 01:50:00,
2013-01-19 19:55:00,36.6,29.1,30.30,NNW,333,3.0,5.0,74,0.00,,,0.00,Wunderground v.1.15,2013-01-20 01:55:00,
2013-01-19 20:04:00,37.3,29.1,30.30,North,355,6.0,7.0,72,0.00,,,0.00,Wunderground v.1.15,2013-01-20 02:04:00,
2013-01-19 20:10:00,37.7,29.5,30.31,North,5,6.0,6.0,72,0.00,,,0.00,Wunderground v.1.15,2013-01-20 02:10:00,
2013-01-19 20:15:00,37.8,29.2,30.31,North,355,6.0,6.0,71,0.00,,,0.00,Wunderground v.1.15,2013-01-20 02:15:00,
2013-01-19 20:24:00,37.8,28.9,30.32,NNW,342,6.0,9.0,70,0.00,,,0.00,Wunderground v.1.15,2013-01-20 02:24:00,
2013-01-19 20:29:00,37.7,29.1,30.32,NNW,348,6.0,6.0,71,0.00,,,0.00,Wunderground v.1.15,2013-01-20 02:29:00,
2013-01-19 20:34:00,37.4,28.9,30.32,North,5,6.0,6.0,71,0.00,,,0.00,Wunderground v.1.15,2013-01-20 02:34:00,
2013-01-19 20:40:00,37.0,28.8,30.33,North,351,5.0,5.0,72,0.00,,,0.00,Wunderground v.1.15,2013-01-20 02:40:00,
2013-01-19 20:45:00,36.7,28.9,30.33,NNW,348,5.0,5.0,73,0.00,,,0.00,Wunderground v.1.15,2013-01-20 02:45:00,
2013-01-19 20:50:00,36.2,28.7,30.33,North,350,4.0,5.0,74,0.00,,,0.00,Wunderground v.1.15,2013-01-20 02:50:00,
2013-01-19 20:59:00,35.7,28.6,30.33,North,355,4.0,4.0,75,0.00,,,0.00,Wunderground v.1.15,2013-01-20 02:59:00,
2013-01-19 21:05:00,35.6,28.5,30.33,North,350,4.0,4.0,75,0.00,,,0.00,Wunderground v.1.15,2013-01-20 03:05:00,
2013-01-19 21:14:00,35.5,28.4,30.33,North,355,5.0,6.0,75,0.00,,,0.00,Wunderground v.1.15,2013-01-20 03:14:00,
2013-01-19 21:19:00,35.3,28.2,30.33,North,350,5.0,5.0,75,0.00,,,0.00,Wunderground v.1.15,2013-01-20 03:19:00,
2013-01-19 21:24:00,35.0,28.2,30.34,North,5,5.0,7.0,76,0.00,,,0.00,Wunderground v.1.15,2013-01-20 03:24:00,
2013-01-19 21:30:00,35.2,28.7,30.34,NNE,29,7.0,12.0,77,0.00,,,0.00,Wunderground v.1.15,2013-01-20 03:30:00,
2013-01-19 21:40:00,34.2,28.7,30.34,NNE,25,15.0,16.0,80,0.00,,,0.00,Wunderground v.1.15,2013-01-20 03:40:00,
2013-01-19 21:45:00,33.2,28.3,30.35,North,5,17.0,17.0,82,0.00,,,0.00,Wunderground v.1.15,2013-01-20 03:45:00,
2013-01-19 21:55:00,32.3,28.3,30.36,NNE,19,14.0,16.0,85,0.00,,,0.00,Wunderground v.1.15,2013-01-20 03:55:00,
2013-01-19 22:05:00,32.0,28.0,30.36,NNE,20,12.0,16.0,85,0.00,,,0.00,Wunderground v.1.15,2013-01-20 04:05:00,
2013-01-19 22:10:00,31.8,27.8,30.37,NNE,13,11.0,13.0,85,0.00,,,0.00,Wunderground v.1.15,2013-01-20 04:10:00,
2013-01-19 22:15:00,31.3,26.4,30.36,North,360,9.0,13.0,82,0.00,,,0.00,Wunderground v.1.15,2013-01-20 04:15:00,
2013-01-19 22:20:00,30.8,26.0,30.36,North,9,10.0,11.0,82,0.00,,,0.00,Wunderground v.1.15,2013-01-20 04:20:00,
2013-01-19 22:25:00,30.6,25.8,30.36,NNE,28,10.0,11.0,82,0.00,,,0.00,Wunderground v.1.15,2013-01-20 04:25:00,
2013-01-19 22:30:00,30.4,25.9,30.35,North,9,11.0,14.0,83,0.00,,,0.00,Wunderground v.1.15,2013-01-20 04:30:00,
2013-01-19 22:35:00,30.2,25.1,30.36,NE,40,13.0,14.0,81,0.00,,,0.00,Wunderground v.1.15,2013-01-20 04:35:00,
2013-01-19 22:45:00,29.6,23.6,30.37,NNE,15,13.0,14.0,78,0.00,,,0.00,Wunderground v.1.15,2013-01-20 04:45:00,
2013-01-19 22:50:00,29.4,23.1,30.37,NNE,18,12.0,14.0,77,0.00,,,0.00,Wunderground v.1.15,2013-01-20 04:50:00,
2013-01-19 22:55:00,29.2,23.2,30.38,NNE,27,12.0,14.0,78,0.00,,,0.00,Wunderground v.1.15,2013-01-20 04:55:00,
2013-01-19 23:00:00,29.0,23.0,30.38,NNE,30,11.0,11.0,78,0.00,,,0.00,Wunderground v.1.15,2013-01-20 05:00:00,
2013-01-19 23:09:00,28.7,22.4,30.39,NE,44,9.0,9.0,77,0.00,,,0.00,Wunderground v.1.15,2013-01-20 05:09:00,
2013-01-19 23:14:00,28.3,22.0,30.39,NNE,32,9.0,9.0,77,0.00,,,0.00,Wunderground v.1.15,2013-01-20 05:14:00,
2013-01-19 23:19:00,28.0,21.7,30.39,NNE,32,9.0,9.0,77,0.00,,,0.00,Wunderground v.1.15,2013-01-20 05:19:00,
2013-01-19 23:24:00,27.9,21.3,30.39,NNE,20,9.0,9.0,76,0.00,,,0.00,Wunderground v.1.15,2013-01-20 05:24:00,
2013-01-19 23:29:00,27.7,20.8,30.39,NNE,33,10.0,10.0,75,0.00,,,0.00,Wunderground v.1.15,2013-01-20 05:29:00,
2013-01-19 23:34:00,27.5,20.0,30.39,North,10,10.0,15.0,73,0.00,,,0.00,Wunderground v.1.15,2013-01-20 05:34:00,
2013-01-19 23:39:00,27.4,17.5,30.39,NNE,22,11.0,11.0,66,0.00,,,0.00,Wunderground v.1.15,2013-01-20 05:39:00,
2013-01-19 23:44:00,27.1,17.6,30.39,NNE,29,12.0,12.0,67,0.00,,,0.00,Wunderground v.1.15,2013-01-20 05:44:00,
2013-01-19 23:50:00,26.9,17.4,30.40,NE,36,10.0,10.0,67,0.00,,,0.00,Wunderground v.1.15,2013-01-20 05:50:00,
2013-01-19 23:55:00,26.6,18.1,30.39,NNE,15,9.0,11.0,70,0.00,,,0.00,Wunderground v.1.15,2013-01-20 05:55:00,